Time;durP1;ratioP1;P1;durP2;ratioP2;P2;SDS_P1;SDS_P2;PMS_P1;PMS_P2;Temp;Humidity;BMP_temperature;BMP_pressure;BME280_temperature;BME280_humidity;BME280_pressure;Samples;Min_cycle;Max_cycle;Signal;HPM_P1;HPM_P2
2021/06/13 00:02:19;;;;;;;7.05;2.42;;;;;;;;;;5018656;28;20382;-48
2021/06/13 00:04:46;;;;;;;5.70;2.40;;;;;;;;;;5019115;28;20057;-52
2021/06/13 00:07:12;;;;;;;9.98;2.88;;;;;;;;;;5021999;28;20041;-49
2021/06/13 00:09:38;;;;;;;6.97;2.55;;;;;;;;;;5015368;28;20025;-47
2021/06/13 00:12:04;;;;;;;8.68;2.78;;;;;;;;;;5027124;28;20041;-47
2021/06/13 00:14:30;;;;;;;6.47;2.40;;;;;;;;;;5019250;28;20030;-47
2021/06/13 00:16:56;;;;;;;10.85;2.85;;;;;;;;;;5028827;28;20088;-48
2021/06/13 00:19:22;;;;;;;5.35;2.63;;;;;;;;;;5014965;28;20168;-48
2021/06/13 00:21:48;;;;;;;7.30;2.47;;;;;;;;;;5018909;28;20033;-50
2021/06/13 00:24:14;;;;;;;5.85;2.15;;;;;;;;;;5028455;28;20026;-48
2021/06/13 00:26:40;;;;;;;6.15;2.10;;;;;;;;;;5026095;28;20048;-48
2021/06/13 00:29:07;;;;;;;7.32;2.50;;;;;;;;;;5023487;28;20022;-48
2021/06/13 00:31:33;;;;;;;8.05;2.40;;;;;;;;;;5032313;28;20045;-48
2021/06/13 00:33:59;;;;;;;10.73;2.97;;;;;;;;;;5014137;28;20537;-48
2021/06/13 00:36:25;;;;;;;7.50;2.80;;;;;;;;;;5016835;28;20048;-49
2021/06/13 00:38:51;;;;;;;8.52;2.78;;;;;;;;;;5015133;28;20037;-48
2021/06/13 00:41:18;;;;;;;6.40;2.38;;;;;;;;;;5014569;28;20068;-50
2021/06/13 00:43:44;;;;;;;9.77;2.97;;;;;;;;;;5014777;28;20505;-47
2021/06/13 00:46:10;;;;;;;4.28;2.17;;;;;;;;;;5014361;28;20038;-48
2021/06/13 00:48:36;;;;;;;11.98;2.38;;;;;;;;;;5015480;28;20470;-48
2021/06/13 00:51:01;;;;;;;9.43;3.25;;;;;;;;;;5017329;28;20021;-48
2021/06/13 00:53:29;;;;;;;5.88;2.70;;;;;;;;;;5014964;28;20069;-48
2021/06/13 00:55:56;;;;;;;9.70;2.95;;;;;;;;;;5014335;28;20050;-49
2021/06/13 00:58:22;;;;;;;11.55;2.97;;;;;;;;;;5014854;28;20378;-48
2021/06/13 01:00:48;;;;;;;7.85;3.08;;;;;;;;;;5019225;28;20057;-48
2021/06/13 01:03:14;;;;;;;7.65;2.78;;;;;;;;;;5015462;28;20064;-47
2021/06/13 01:05:40;;;;;;;10.18;3.13;;;;;;;;;;5015830;28;20034;-47
2021/06/13 01:08:30;;;;;;;7.85;2.65;;;;;;;;;;5016227;28;20026;-48
2021/06/13 01:11:05;;;;;;;6.93;2.67;;;;;;;;;;5013541;28;20112;-48
2021/06/13 01:13:50;;;;;;;12.27;3.00;;;;;;;;;;5014199;28;20421;-49
2021/06/13 01:16:32;;;;;;;5.90;2.72;;;;;;;;;;5012104;28;20034;-48
2021/06/13 01:19:01;;;;;;;8.05;3.10;;;;;;;;;;5010145;28;20123;-48
2021/06/13 01:21:35;;;;;;;11.80;3.00;;;;;;;;;;5019195;28;20034;-47
2021/06/13 01:24:27;;;;;;;5.82;2.58;;;;;;;;;;5015707;28;20087;-48
2021/06/13 01:27:03;;;;;;;7.80;2.47;;;;;;;;;;5021203;28;20025;-48
2021/06/13 01:29:32;;;;;;;12.35;3.05;;;;;;;;;;5013806;28;20366;-47
2021/06/13 01:32:00;;;;;;;14.50;3.30;;;;;;;;;;5013779;28;20145;-48
2021/06/13 01:34:31;;;;;;;7.05;2.30;;;;;;;;;;5017275;28;20128;-47
2021/06/13 01:36:58;;;;;;;6.93;2.97;;;;;;;;;;5012759;28;20025;-48
2021/06/13 01:39:27;;;;;;;7.72;3.15;;;;;;;;;;5015074;28;20109;-47
2021/06/13 01:41:53;;;;;;;7.18;2.53;;;;;;;;;;5007299;28;20018;-48
2021/06/13 01:44:20;;;;;;;11.43;2.90;;;;;;;;;;5024967;28;20116;-47
2021/06/13 01:46:48;;;;;;;12.57;3.10;;;;;;;;;;5019356;28;20033;-47
2021/06/13 01:49:17;;;;;;;8.55;2.40;;;;;;;;;;5017997;28;20478;-47
2021/06/13 01:51:43;;;;;;;7.30;2.53;;;;;;;;;;5019844;28;20536;-47
2021/06/13 01:54:10;;;;;;;7.32;2.83;;;;;;;;;;5021995;28;20355;-48
2021/06/13 01:56:37;;;;;;;6.78;3.05;;;;;;;;;;5025594;28;20215;-47
2021/06/13 01:59:04;;;;;;;10.88;2.53;;;;;;;;;;5019062;28;20040;-47
2021/06/13 02:01:30;;;;;;;9.65;2.30;;;;;;;;;;5017768;28;20071;-47
2021/06/13 02:03:58;;;;;;;7.43;2.58;;;;;;;;;;5026557;28;20030;-47
2021/06/13 02:06:27;;;;;;;7.53;3.15;;;;;;;;;;5015160;28;20060;-47
2021/06/13 02:08:53;;;;;;;7.95;2.50;;;;;;;;;;5010364;28;20466;-48
2021/06/13 02:11:21;;;;;;;6.63;2.90;;;;;;;;;;5012957;28;20148;-47
2021/06/13 02:13:47;;;;;;;10.02;2.50;;;;;;;;;;5019698;28;20424;-49
2021/06/13 02:16:14;;;;;;;10.60;2.63;;;;;;;;;;5024156;28;20026;-47
2021/06/13 02:18:40;;;;;;;7.32;2.70;;;;;;;;;;5013858;28;20413;-47
2021/06/13 02:21:07;;;;;;;9.35;3.15;;;;;;;;;;5013976;28;20052;-47
2021/06/13 02:23:34;;;;;;;10.57;2.97;;;;;;;;;;5026567;28;20029;-47
2021/06/13 02:26:00;;;;;;;8.40;2.78;;;;;;;;;;5015926;28;20124;-47
2021/06/13 02:28:28;;;;;;;7.97;2.65;;;;;;;;;;5013288;28;20072;-48
2021/06/13 02:30:55;;;;;;;7.70;2.22;;;;;;;;;;5021873;28;20156;-48
2021/06/13 02:33:21;;;;;;;9.10;3.70;;;;;;;;;;5014996;28;20065;-48
2021/06/13 02:35:48;;;;;;;8.02;2.58;;;;;;;;;;5012177;28;20084;-48
2021/06/13 02:38:16;;;;;;;11.90;2.95;;;;;;;;;;5016829;28;20101;-49
2021/06/13 02:40:42;;;;;;;8.05;2.55;;;;;;;;;;5012631;28;20045;-47
2021/06/13 02:43:09;;;;;;;10.90;2.75;;;;;;;;;;5012701;28;20030;-47
2021/06/13 02:45:35;;;;;;;7.50;2.42;;;;;;;;;;5012420;28;20025;-47
2021/06/13 02:48:01;;;;;;;10.98;3.10;;;;;;;;;;5012796;28;20111;-48
2021/06/13 02:50:28;;;;;;;8.65;2.95;;;;;;;;;;5010928;28;20033;-47
2021/06/13 02:53:13;;;;;;;11.57;2.55;;;;;;;;;;5014245;28;20064;-47
2021/06/13 02:55:42;;;;;;;8.63;3.28;;;;;;;;;;5011937;28;20109;-47
2021/06/13 02:58:12;;;;;;;12.95;3.47;;;;;;;;;;5011557;28;20538;-47
2021/06/13 03:00:38;;;;;;;10.40;3.50;;;;;;;;;;5011240;28;20036;-47
2021/06/13 03:03:04;;;;;;;8.10;2.53;;;;;;;;;;5019756;28;20034;-48
2021/06/13 03:05:31;;;;;;;8.20;2.67;;;;;;;;;;5013831;28;20034;-47
2021/06/13 03:07:57;;;;;;;11.52;3.10;;;;;;;;;;5015201;28;20084;-47
2021/06/13 03:10:23;;;;;;;7.88;3.00;;;;;;;;;;5012346;28;20048;-47
2021/06/13 03:12:51;;;;;;;6.63;2.63;;;;;;;;;;5011892;28;20453;-47
2021/06/13 03:15:17;;;;;;;14.50;3.50;;;;;;;;;;5011697;28;20026;-48
2021/06/13 03:17:44;;;;;;;10.57;2.83;;;;;;;;;;5012007;28;20032;-49
2021/06/13 03:20:11;;;;;;;6.55;2.83;;;;;;;;;;5019719;28;20037;-47
2021/06/13 03:22:37;;;;;;;8.30;2.92;;;;;;;;;;5017114;28;20113;-48
2021/06/13 03:25:04;;;;;;;13.02;3.33;;;;;;;;;;5018439;28;20516;-47
2021/06/13 03:27:31;;;;;;;7.70;3.20;;;;;;;;;;5008482;28;20049;-47
2021/06/13 03:29:57;;;;;;;16.33;3.45;;;;;;;;;;5014209;28;20176;-47
2021/06/13 03:32:23;;;;;;;12.10;2.90;;;;;;;;;;5012167;28;20573;-48
2021/06/13 03:34:50;;;;;;;8.00;2.50;;;;;;;;;;5014598;28;20033;-48
2021/06/13 03:37:16;;;;;;;9.25;2.80;;;;;;;;;;5011023;28;20173;-47
2021/06/13 03:39:43;;;;;;;8.60;3.00;;;;;;;;;;5012793;28;20040;-48
2021/06/13 03:42:10;;;;;;;9.38;2.78;;;;;;;;;;5008633;28;20475;-47
2021/06/13 03:44:37;;;;;;;9.07;2.72;;;;;;;;;;5013993;28;20102;-47
2021/06/13 03:47:04;;;;;;;12.70;3.47;;;;;;;;;;5027850;28;20355;-47
2021/06/13 03:49:31;;;;;;;8.65;3.38;;;;;;;;;;5012334;28;20473;-48
2021/06/13 03:51:57;;;;;;;8.85;2.67;;;;;;;;;;5020374;28;20126;-47
2021/06/13 03:54:23;;;;;;;13.38;3.03;;;;;;;;;;5012803;28;20104;-47
2021/06/13 03:56:53;;;;;;;7.75;2.58;;;;;;;;;;5021914;28;20125;-48
2021/06/13 03:59:23;;;;;;;10.02;2.75;;;;;;;;;;5015468;28;20029;-47
2021/06/13 04:01:50;;;;;;;9.45;3.22;;;;;;;;;;5025651;28;20037;-47
2021/06/13 04:04:17;;;;;;;9.85;2.97;;;;;;;;;;5020887;28;20121;-47
2021/06/13 04:06:45;;;;;;;5.60;2.50;;;;;;;;;;5018176;28;20064;-47
2021/06/13 04:09:12;;;;;;;11.93;3.08;;;;;;;;;;5021916;28;20025;-49
2021/06/13 04:11:39;;;;;;;12.00;3.17;;;;;;;;;;5027365;28;20544;-48
2021/06/13 04:14:05;;;;;;;10.32;3.30;;;;;;;;;;5024220;28;20073;-48
2021/06/13 04:16:31;;;;;;;9.15;2.30;;;;;;;;;;5017302;28;20061;-47
2021/06/13 04:18:57;;;;;;;8.75;2.67;;;;;;;;;;5024980;28;20453;-47
2021/06/13 04:21:24;;;;;;;8.55;3.15;;;;;;;;;;5021316;28;20544;-47
2021/06/13 04:23:50;;;;;;;6.18;2.53;;;;;;;;;;5029179;28;20092;-49
2021/06/13 04:26:21;;;;;;;7.15;3.03;;;;;;;;;;5017130;28;20116;-48
2021/06/13 04:28:51;;;;;;;9.38;2.42;;;;;;;;;;5018255;28;20025;-47
2021/06/13 04:31:18;;;;;;;8.55;2.58;;;;;;;;;;5019546;28;20129;-49
2021/06/13 04:33:45;;;;;;;8.68;2.95;;;;;;;;;;5015841;28;20478;-47
2021/06/13 04:36:12;;;;;;;11.95;2.78;;;;;;;;;;5013913;28;20026;-47
2021/06/13 04:38:38;;;;;;;5.60;2.25;;;;;;;;;;5013708;28;20056;-50
2021/06/13 04:41:05;;;;;;;10.27;3.45;;;;;;;;;;5014403;28;20030;-48
2021/06/13 04:43:31;;;;;;;6.82;2.45;;;;;;;;;;5017400;28;20375;-48
2021/06/13 04:45:57;;;;;;;10.85;2.85;;;;;;;;;;5014069;28;20037;-47
2021/06/13 04:48:23;;;;;;;7.82;2.55;;;;;;;;;;5015773;28;20072;-47
2021/06/13 04:50:50;;;;;;;9.43;2.95;;;;;;;;;;5014078;28;20050;-47
2021/06/13 04:53:34;;;;;;;15.90;3.30;;;;;;;;;;5016089;28;20036;-47
2021/06/13 04:56:05;;;;;;;8.35;3.20;;;;;;;;;;5014304;28;20417;-48
2021/06/13 04:58:30;;;;;;;7.75;2.80;;;;;;;;;;5012564;28;20030;-47
2021/06/13 05:00:57;;;;;;;7.95;2.60;;;;;;;;;;5015515;28;20091;-47
2021/06/13 05:03:23;;;;;;;8.90;2.90;;;;;;;;;;5013609;28;20117;-48
2021/06/13 05:05:50;;;;;;;11.27;2.90;;;;;;;;;;5013615;28;20132;-47
2021/06/13 05:08:16;;;;;;;7.30;2.92;;;;;;;;;;5013999;28;20053;-47
2021/06/13 05:10:42;;;;;;;11.48;3.25;;;;;;;;;;5013300;28;20473;-49
2021/06/13 05:13:14;;;;;;;7.40;3.03;;;;;;;;;;5021119;28;20061;-47
2021/06/13 05:15:41;;;;;;;7.15;2.58;;;;;;;;;;5013357;28;20101;-47
2021/06/13 05:18:07;;;;;;;7.82;2.50;;;;;;;;;;5014162;28;20084;-47
2021/06/13 05:20:33;;;;;;;8.18;2.80;;;;;;;;;;5012223;28;20042;-48
2021/06/13 05:23:03;;;;;;;13.60;3.22;;;;;;;;;;5015006;28;20037;-50
2021/06/13 05:25:32;;;;;;;8.85;3.17;;;;;;;;;;5015465;28;20021;-49
2021/06/13 05:27:58;;;;;;;10.55;2.80;;;;;;;;;;5013325;28;20029;-48
2021/06/13 05:30:28;;;;;;;11.05;3.20;;;;;;;;;;5013048;28;20030;-48
2021/06/13 05:32:54;;;;;;;10.52;3.10;;;;;;;;;;5014768;28;20482;-47
2021/06/13 05:35:20;;;;;;;9.85;3.03;;;;;;;;;;5014970;28;20033;-47
2021/06/13 05:37:46;;;;;;;12.35;3.00;;;;;;;;;;5013424;28;20106;-47
2021/06/13 05:40:13;;;;;;;7.53;2.40;;;;;;;;;;5012991;28;20041;-47
2021/06/13 05:42:39;;;;;;;11.18;3.13;;;;;;;;;;5013629;28;20030;-47
2021/06/13 05:45:06;;;;;;;10.50;3.30;;;;;;;;;;5015007;28;20030;-47
2021/06/13 05:47:32;;;;;;;6.70;2.80;;;;;;;;;;5015150;28;20026;-47
2021/06/13 05:49:58;;;;;;;8.07;2.63;;;;;;;;;;5024447;28;20026;-48
2021/06/13 05:52:24;;;;;;;6.97;2.90;;;;;;;;;;5025423;28;20053;-48
2021/06/13 05:54:51;;;;;;;8.60;2.50;;;;;;;;;;5012879;28;20031;-48
2021/06/13 05:57:17;;;;;;;12.70;3.17;;;;;;;;;;5015423;28;20032;-48
2021/06/13 05:59:43;;;;;;;9.35;2.75;;;;;;;;;;5016642;28;20026;-49
2021/06/13 06:02:09;;;;;;;9.23;2.67;;;;;;;;;;5018621;28;20661;-48
2021/06/13 06:04:35;;;;;;;11.98;3.15;;;;;;;;;;5020549;28;20109;-47
2021/06/13 06:07:01;;;;;;;7.47;3.20;;;;;;;;;;5019299;28;20104;-47
2021/06/13 06:09:27;;;;;;;5.38;2.97;;;;;;;;;;5023501;28;20110;-48
2021/06/13 06:11:53;;;;;;;10.35;2.70;;;;;;;;;;5015522;28;20021;-48
2021/06/13 06:14:19;;;;;;;9.43;3.10;;;;;;;;;;5016786;28;20021;-47
2021/06/13 06:16:45;;;;;;;8.30;2.88;;;;;;;;;;5027234;28;20057;-48
2021/06/13 06:19:11;;;;;;;14.73;3.85;;;;;;;;;;5018852;28;20071;-47
2021/06/13 06:21:37;;;;;;;9.13;3.22;;;;;;;;;;5021086;28;20022;-48
2021/06/13 06:24:04;;;;;;;8.98;3.10;;;;;;;;;;5020599;28;20058;-49
2021/06/13 06:26:30;;;;;;;13.05;3.00;;;;;;;;;;5015190;28;20108;-48
2021/06/13 06:28:56;;;;;;;16.23;2.83;;;;;;;;;;5012611;28;20171;-47
2021/06/13 06:31:22;;;;;;;12.18;3.03;;;;;;;;;;5011741;28;20038;-48
2021/06/13 06:33:48;;;;;;;9.68;2.78;;;;;;;;;;5012331;28;20058;-49
2021/06/13 06:36:14;;;;;;;10.80;3.13;;;;;;;;;;5012278;28;20209;-47
2021/06/13 06:38:40;;;;;;;5.95;2.38;;;;;;;;;;5012671;28;20037;-47
2021/06/13 06:41:06;;;;;;;12.55;3.72;;;;;;;;;;5012762;28;20439;-48
2021/06/13 06:43:31;;;;;;;11.50;3.28;;;;;;;;;;5015843;28;20037;-47
2021/06/13 06:45:57;;;;;;;12.95;3.17;;;;;;;;;;5012354;28;20371;-48
2021/06/13 06:48:23;;;;;;;11.88;3.10;;;;;;;;;;5014129;28;20105;-48
2021/06/13 06:50:49;;;;;;;8.35;2.70;;;;;;;;;;5011483;28;20446;-47
2021/06/13 06:53:15;;;;;;;9.80;3.10;;;;;;;;;;5011981;28;20038;-48
2021/06/13 06:55:41;;;;;;;11.68;3.25;;;;;;;;;;5013180;28;20121;-52
2021/06/13 06:58:07;;;;;;;10.30;3.08;;;;;;;;;;5013770;28;20026;-47
2021/06/13 07:00:33;;;;;;;10.90;2.90;;;;;;;;;;5012847;28;20037;-48
2021/06/13 07:02:59;;;;;;;12.20;3.35;;;;;;;;;;5013476;28;20042;-47
2021/06/13 07:05:25;;;;;;;7.97;3.17;;;;;;;;;;5011738;28;20034;-48
2021/06/13 07:07:51;;;;;;;9.68;2.90;;;;;;;;;;5012519;28;20037;-48
2021/06/13 07:10:17;;;;;;;8.02;2.53;;;;;;;;;;5014141;28;20385;-49
2021/06/13 07:12:43;;;;;;;11.95;2.50;;;;;;;;;;5012881;28;20030;-47
2021/06/13 07:15:10;;;;;;;9.20;2.53;;;;;;;;;;5011927;28;20041;-47
2021/06/13 07:17:36;;;;;;;9.88;2.83;;;;;;;;;;5011811;28;20168;-47
2021/06/13 07:20:03;;;;;;;10.13;2.55;;;;;;;;;;5011535;28;20030;-47
2021/06/13 07:22:29;;;;;;;7.85;2.60;;;;;;;;;;5016251;28;20125;-48
2021/06/13 07:24:57;;;;;;;10.43;3.13;;;;;;;;;;5011337;28;20521;-47
2021/06/13 07:27:23;;;;;;;17.58;3.55;;;;;;;;;;5012531;28;20022;-47
2021/06/13 07:29:49;;;;;;;8.88;2.22;;;;;;;;;;5031750;28;20025;-50
2021/06/13 07:32:16;;;;;;;8.90;2.60;;;;;;;;;;5014853;28;20042;-49
2021/06/13 07:34:42;;;;;;;7.60;2.30;;;;;;;;;;5010621;28;20096;-49
2021/06/13 07:37:08;;;;;;;6.80;2.22;;;;;;;;;;5010747;28;20034;-48
2021/06/13 07:39:35;;;;;;;7.15;2.47;;;;;;;;;;5016452;28;20033;-49
2021/06/13 07:42:02;;;;;;;9.60;2.30;;;;;;;;;;5015454;28;20029;-50
2021/06/13 07:44:28;;;;;;;11.90;2.80;;;;;;;;;;5017875;28;20539;-48
2021/06/13 07:46:54;;;;;;;8.10;2.22;;;;;;;;;;5020264;28;20030;-50
2021/06/13 07:49:20;;;;;;;6.97;2.33;;;;;;;;;;5018807;28;20028;-48
2021/06/13 07:51:47;;;;;;;11.50;2.78;;;;;;;;;;5015886;28;20116;-48
2021/06/13 07:54:13;;;;;;;7.43;2.25;;;;;;;;;;5024885;28;20026;-47
2021/06/13 07:56:39;;;;;;;12.90;2.85;;;;;;;;;;5025513;28;20037;-50
2021/06/13 07:59:04;;;;;;;6.82;2.20;;;;;;;;;;5032185;28;20032;-49
2021/06/13 08:01:31;;;;;;;9.27;2.85;;;;;;;;;;5015232;28;20029;-47
2021/06/13 08:03:57;;;;;;;8.88;2.90;;;;;;;;;;5016662;28;20091;-48
2021/06/13 08:06:23;;;;;;;10.65;2.33;;;;;;;;;;5015475;28;20030;-47
2021/06/13 08:08:49;;;;;;;12.43;2.40;;;;;;;;;;5017547;28;20049;-47
2021/06/13 08:11:15;;;;;;;11.32;2.50;;;;;;;;;;5017415;28;20030;-48
2021/06/13 08:13:41;;;;;;;9.15;2.17;;;;;;;;;;5020248;28;20176;-47
2021/06/13 08:16:07;;;;;;;9.80;2.72;;;;;;;;;;5022021;28;20120;-48
2021/06/13 08:18:33;;;;;;;14.27;3.38;;;;;;;;;;5023934;28;20033;-48
2021/06/13 08:20:59;;;;;;;9.27;2.42;;;;;;;;;;5031228;28;20033;-47
2021/06/13 08:23:25;;;;;;;8.82;2.53;;;;;;;;;;5013922;28;20518;-48
2021/06/13 08:25:51;;;;;;;11.82;3.25;;;;;;;;;;5015977;28;20022;-48
2021/06/13 08:28:18;;;;;;;8.13;2.92;;;;;;;;;;5034725;28;20040;-48
2021/06/13 08:30:45;;;;;;;8.35;3.03;;;;;;;;;;5034757;28;20109;-47
2021/06/13 08:33:11;;;;;;;10.30;2.72;;;;;;;;;;5012021;28;20125;-49
2021/06/13 08:35:37;;;;;;;10.68;2.63;;;;;;;;;;5019254;28;20048;-49
2021/06/13 08:38:04;;;;;;;9.43;2.72;;;;;;;;;;5021411;28;20112;-50
2021/06/13 08:40:31;;;;;;;7.35;2.75;;;;;;;;;;5016712;28;20037;-48
2021/06/13 08:42:57;;;;;;;8.30;2.50;;;;;;;;;;5018040;28;20585;-48
2021/06/13 08:45:24;;;;;;;9.75;2.58;;;;;;;;;;5017586;28;20029;-48
2021/06/13 08:47:55;;;;;;;8.68;2.42;;;;;;;;;;5023439;28;20029;-48
2021/06/13 08:50:21;;;;;;;15.05;3.30;;;;;;;;;;5028612;28;20032;-47
2021/06/13 08:52:48;;;;;;;8.27;2.15;;;;;;;;;;5015741;28;20117;-49
2021/06/13 08:55:15;;;;;;;10.63;3.03;;;;;;;;;;5014034;28;20030;-48
2021/06/13 08:57:41;;;;;;;10.52;2.92;;;;;;;;;;5013313;28;20120;-51
2021/06/13 09:00:08;;;;;;;7.90;2.17;;;;;;;;;;5014126;28;20057;-52
2021/06/13 09:02:34;;;;;;;11.35;2.58;;;;;;;;;;5014529;28;20076;-48
2021/06/13 09:05:00;;;;;;;9.32;2.67;;;;;;;;;;5013669;28;20475;-48
2021/06/13 09:07:27;;;;;;;6.05;2.50;;;;;;;;;;5016674;28;20045;-48
2021/06/13 09:09:53;;;;;;;9.60;2.25;;;;;;;;;;5022248;28;20413;-47
2021/06/13 09:12:19;;;;;;;5.20;1.98;;;;;;;;;;5019469;28;20758;-48
2021/06/13 09:14:47;;;;;;;9.00;2.95;;;;;;;;;;5014429;28;20126;-48
2021/06/13 09:17:14;;;;;;;10.90;2.50;;;;;;;;;;5018795;28;20088;-50
2021/06/13 09:20:00;;;;;;;12.60;3.17;;;;;;;;;;5014466;28;20034;-48
2021/06/13 09:22:26;;;;;;;11.10;3.10;;;;;;;;;;5018683;28;20108;-49
2021/06/13 09:25:04;;;;;;;6.82;2.75;;;;;;;;;;5019108;28;20025;-50
2021/06/13 09:27:30;;;;;;;13.32;2.95;;;;;;;;;;5015184;28;20160;-49
2021/06/13 09:29:56;;;;;;;12.95;3.40;;;;;;;;;;5014914;28;20030;-52
2021/06/13 09:32:22;;;;;;;13.48;3.47;;;;;;;;;;5014356;28;20049;-50
2021/06/13 09:35:07;;;;;;;7.15;2.88;;;;;;;;;;5018329;28;20037;-53
2021/06/13 09:37:33;;;;;;;10.63;3.00;;;;;;;;;;5018779;28;20061;-49
2021/06/13 09:40:08;;;;;;;7.90;2.78;;;;;;;;;;5012711;28;20405;-51
2021/06/13 09:42:36;;;;;;;16.58;3.47;;;;;;;;;;5022855;28;20100;-49
2021/06/13 09:45:16;;;;;;;7.47;3.15;;;;;;;;;;5029555;28;20033;-49
2021/06/13 09:47:42;;;;;;;7.53;2.75;;;;;;;;;;5033822;28;20033;-48
2021/06/13 09:50:08;;;;;;;8.25;2.75;;;;;;;;;;5019831;28;20033;-50
2021/06/13 09:52:34;;;;;;;8.88;2.72;;;;;;;;;;5024937;28;20440;-48
2021/06/13 09:55:12;;;;;;;9.48;2.72;;;;;;;;;;5031252;28;20036;-49
2021/06/13 09:57:57;;;;;;;13.82;2.97;;;;;;;;;;5029534;28;20053;-50
2021/06/13 10:00:24;;;;;;;7.70;2.95;;;;;;;;;;5020166;28;20030;-49
2021/06/13 10:02:50;;;;;;;5.43;2.75;;;;;;;;;;5032750;28;20044;-49
2021/06/13 10:05:16;;;;;;;7.93;2.58;;;;;;;;;;5024879;28;20450;-49
2021/06/13 10:07:42;;;;;;;8.25;2.35;;;;;;;;;;5028241;28;20037;-49
2021/06/13 10:10:08;;;;;;;11.57;2.70;;;;;;;;;;5033309;28;20032;-50
2021/06/13 10:12:36;;;;;;;7.03;2.85;;;;;;;;;;5033218;28;20021;-50
2021/06/13 10:15:12;;;;;;;18.20;2.60;;;;;;;;;;5033329;28;20029;-48
2021/06/13 10:17:38;;;;;;;11.80;2.50;;;;;;;;;;5017973;28;20469;-48
2021/06/13 10:20:04;;;;;;;12.00;3.10;;;;;;;;;;5015300;28;20032;-48
2021/06/13 10:22:30;;;;;;;7.88;2.95;;;;;;;;;;5017992;28;20053;-49
2021/06/13 10:24:56;;;;;;;13.73;3.67;;;;;;;;;;5030145;28;20109;-49
2021/06/13 10:27:22;;;;;;;12.10;3.40;;;;;;;;;;5024468;28;20030;-48
2021/06/13 10:29:50;;;;;;;11.32;3.63;;;;;;;;;;5030822;28;20037;-48
2021/06/13 10:32:22;;;;;;;13.38;3.72;;;;;;;;;;5017862;28;20120;-48
2021/06/13 10:34:54;;;;;;;10.50;3.30;;;;;;;;;;5011702;28;20120;-49
2021/06/13 10:37:21;;;;;;;12.70;3.47;;;;;;;;;;5010553;28;20605;-48
2021/06/13 10:39:50;;;;;;;11.10;3.13;;;;;;;;;;5012120;28;20037;-49
2021/06/13 10:42:17;;;;;;;8.80;2.92;;;;;;;;;;5012147;28;20497;-48
2021/06/13 10:44:44;;;;;;;7.10;3.05;;;;;;;;;;5011997;28;20040;-48
2021/06/13 10:47:12;;;;;;;10.82;3.05;;;;;;;;;;5011745;28;20041;-48
2021/06/13 10:49:39;;;;;;;13.77;3.80;;;;;;;;;;5011358;28;20021;-49
2021/06/13 10:52:06;;;;;;;15.10;3.58;;;;;;;;;;5011684;28;20030;-48
2021/06/13 10:54:35;;;;;;;10.02;3.05;;;;;;;;;;5021236;28;20029;-49
2021/06/13 10:57:01;;;;;;;7.88;3.10;;;;;;;;;;5010968;28;20069;-51
2021/06/13 10:59:32;;;;;;;7.53;2.53;;;;;;;;;;5013274;28;20481;-50
2021/06/13 11:02:03;;;;;;;11.15;3.17;;;;;;;;;;5013026;28;20029;-50
2021/06/13 11:04:48;;;;;;;8.73;3.05;;;;;;;;;;5011519;28;20042;-49
2021/06/13 11:07:26;;;;;;;8.05;2.97;;;;;;;;;;5011886;28;20028;-49
2021/06/13 11:10:05;;;;;;;7.22;2.75;;;;;;;;;;5011080;28;20100;-50
2021/06/13 11:12:45;;;;;;;10.85;3.08;;;;;;;;;;5010980;28;20033;-49
2021/06/13 11:15:11;;;;;;;8.73;3.20;;;;;;;;;;5020260;28;20034;-50
2021/06/13 11:17:54;;;;;;;8.63;2.63;;;;;;;;;;5013739;28;20524;-50
2021/06/13 11:20:29;;;;;;;10.13;2.90;;;;;;;;;;5014483;28;20022;-51
2021/06/13 11:22:56;;;;;;;8.73;3.08;;;;;;;;;;4999346;28;20029;-49
2021/06/13 11:25:25;;;;;;;9.05;3.33;;;;;;;;;;5009857;28;20030;-52
2021/06/13 11:28:09;;;;;;;8.10;3.10;;;;;;;;;;5010881;28;20352;-50
2021/06/13 11:30:40;;;;;;;10.18;3.20;;;;;;;;;;5010832;28;20087;-50
2021/06/13 11:33:07;;;;;;;6.28;2.88;;;;;;;;;;5009697;28;39182;-50
2021/06/13 11:35:35;;;;;;;6.05;2.47;;;;;;;;;;5011607;28;20061;-52
2021/06/13 11:38:13;;;;;;;6.03;2.65;;;;;;;;;;5006075;28;20030;-49
2021/06/13 11:40:49;;;;;;;6.25;2.42;;;;;;;;;;5005141;28;20425;-51
2021/06/13 11:43:17;;;;;;;8.48;2.50;;;;;;;;;;5006471;28;20447;-51
2021/06/13 11:46:00;;;;;;;9.93;2.85;;;;;;;;;;5010757;28;20022;-50
2021/06/13 11:48:28;;;;;;;6.28;1.98;;;;;;;;;;5011381;28;20111;-49
2021/06/13 11:51:06;;;;;;;11.15;2.30;;;;;;;;;;5011335;28;20417;-49
2021/06/13 11:53:51;;;;;;;8.70;2.45;;;;;;;;;;5011155;28;20038;-50
2021/06/13 11:59:01;;;;;;;7.90;3.03;;;;;;;;;;5011404;28;20034;-50
2021/06/13 12:01:28;;;;;;;8.70;2.67;;;;;;;;;;5014809;28;20429;-50
2021/06/13 12:03:55;;;;;;;7.10;2.90;;;;;;;;;;5011375;28;20092;-53
2021/06/13 12:06:21;;;;;;;6.47;2.88;;;;;;;;;;5011704;28;20045;-50
2021/06/13 12:08:49;;;;;;;6.80;2.08;;;;;;;;;;5009950;28;20018;-52
2021/06/13 12:11:30;;;;;;;8.32;2.65;;;;;;;;;;5012285;28;20030;-49
2021/06/13 12:13:57;;;;;;;6.25;2.28;;;;;;;;;;5011779;28;20028;-51
2021/06/13 12:16:23;;;;;;;7.45;2.08;;;;;;;;;;5010332;28;20116;-52
2021/06/13 12:19:03;;;;;;;5.85;2.55;;;;;;;;;;5010010;28;20030;-49
2021/06/13 12:21:30;;;;;;;4.25;2.35;;;;;;;;;;5010939;28;20062;-48
2021/06/13 12:24:05;;;;;;;6.78;2.85;;;;;;;;;;5011244;28;20026;-50
2021/06/13 12:29:26;;;;;;;7.22;2.78;;;;;;;;;;5010716;28;20481;-48
2021/06/13 12:31:53;;;;;;;6.97;2.80;;;;;;;;;;5013747;28;20050;-51
2021/06/13 12:34:20;;;;;;;9.43;2.30;;;;;;;;;;5013426;28;20042;-48
2021/06/13 12:36:50;;;;;;;6.50;2.47;;;;;;;;;;5018268;28;20026;-49
2021/06/13 12:39:29;;;;;;;4.22;2.22;;;;;;;;;;5014327;28;20029;-49
2021/06/13 12:42:08;;;;;;;5.47;2.47;;;;;;;;;;5014669;28;20484;-49
2021/06/13 12:44:34;;;;;;;4.53;2.50;;;;;;;;;;5014311;28;20030;-49
2021/06/13 12:47:00;;;;;;;6.00;2.80;;;;;;;;;;5014275;28;20022;-49
2021/06/13 12:49:37;;;;;;;5.47;2.45;;;;;;;;;;5014383;28;20030;-49
2021/06/13 12:52:14;;;;;;;5.43;1.90;;;;;;;;;;5014289;28;20366;-50
2021/06/13 12:54:43;;;;;;;7.10;2.20;;;;;;;;;;5015472;28;20029;-49
2021/06/13 12:57:10;;;;;;;4.15;1.73;;;;;;;;;;5014348;28;20037;-50
2021/06/13 12:59:37;;;;;;;5.20;1.85;;;;;;;;;;5014262;28;20032;-50
2021/06/13 13:02:06;;;;;;;5.20;1.98;;;;;;;;;;5014262;28;20046;-50
2021/06/13 13:04:48;;;;;;;5.53;1.77;;;;;;;;;;5013681;28;20041;-51
2021/06/13 13:07:28;;;;;;;3.57;1.83;;;;;;;;;;5021186;28;20056;-50
2021/06/13 13:10:06;;;;;;;6.53;2.50;;;;;;;;;;5021899;28;20048;-49
2021/06/13 13:12:32;;;;;;;5.07;2.15;;;;;;;;;;5024790;28;20030;-49
2021/06/13 13:15:21;;;;;;;3.70;1.73;;;;;;;;;;5014912;28;20026;-49
2021/06/13 13:17:47;;;;;;;4.85;1.73;;;;;;;;;;5014573;28;20065;-54
2021/06/13 13:20:21;;;;;;;3.95;2.00;;;;;;;;;;5017677;28;20061;-51
2021/06/13 13:22:48;;;;;;;8.82;2.08;;;;;;;;;;5016424;28;20029;-51
2021/06/13 13:25:15;;;;;;;7.72;2.13;;;;;;;;;;5015354;28;20100;-51
2021/06/13 13:27:41;;;;;;;3.35;1.85;;;;;;;;;;5014658;28;20080;-50
2021/06/13 13:30:27;;;;;;;7.10;2.47;;;;;;;;;;5014509;28;20113;-52
2021/06/13 13:32:54;;;;;;;4.50;1.92;;;;;;;;;;5014032;28;20052;-51
2021/06/13 13:35:27;;;;;;;4.40;2.13;;;;;;;;;;5012361;28;20056;-51
2021/06/13 13:37:53;;;;;;;;;;;;;;;;;;5012245;28;20045;-50
2021/06/13 13:40:20;;;;;;;6.93;2.22;;;;;;;;;;5015143;28;19968;-51
2021/06/13 13:43:17;;;;;;;5.95;2.10;;;;;;;;;;5010614;28;20032;-51
2021/06/13 13:45:43;;;;;;;3.78;1.77;;;;;;;;;;5011067;28;20045;-53
2021/06/13 13:48:19;;;;;;;4.97;2.17;;;;;;;;;;5017517;28;20029;-50
2021/06/13 13:50:52;;;;;;;5.82;2.40;;;;;;;;;;5012636;28;20026;-49
2021/06/13 13:53:20;;;;;;;5.30;2.42;;;;;;;;;;5012384;28;20049;-50
2021/06/13 13:55:50;;;;;;;5.18;2.10;;;;;;;;;;5012385;28;20081;-53
2021/06/13 13:58:17;;;;;;;5.00;2.42;;;;;;;;;;5012435;28;20026;-50
2021/06/13 14:00:44;;;;;;;4.90;2.35;;;;;;;;;;5019152;28;20042;-50
2021/06/13 14:03:10;;;;;;;5.18;2.45;;;;;;;;;;5013203;28;20044;-51
2021/06/13 14:05:36;;;;;;;4.85;2.40;;;;;;;;;;5012364;28;20026;-53
2021/06/13 14:08:02;;;;;;;7.00;2.50;;;;;;;;;;5012259;28;20038;-53
2021/06/13 14:10:28;;;;;;;5.80;2.50;;;;;;;;;;5013083;28;20089;-52
2021/06/13 14:12:54;;;;;;;4.60;2.17;;;;;;;;;;5012970;28;20117;-52
2021/06/13 14:15:20;;;;;;;7.80;3.15;;;;;;;;;;5013458;28;20018;-50
2021/06/13 14:17:47;;;;;;;5.47;2.47;;;;;;;;;;5012470;28;20080;-54
2021/06/13 14:20:13;;;;;;;4.47;2.33;;;;;;;;;;5013439;28;20030;-52
2021/06/13 14:22:39;;;;;;;5.13;2.38;;;;;;;;;;5011413;28;20124;-50
2021/06/13 14:25:05;;;;;;;3.78;1.95;;;;;;;;;;5018096;28;20489;-53
2021/06/13 14:27:32;;;;;;;4.72;2.40;;;;;;;;;;5015975;28;20037;-52
2021/06/13 14:29:58;;;;;;;5.68;2.65;;;;;;;;;;5013047;28;20026;-54
2021/06/13 14:32:24;;;;;;;7.13;2.60;;;;;;;;;;5011625;28;20172;-54
2021/06/13 14:34:50;;;;;;;6.70;2.40;;;;;;;;;;5013270;28;20421;-50
2021/06/13 14:37:16;;;;;;;7.18;2.60;;;;;;;;;;5011344;28;20033;-53
2021/06/13 14:39:43;;;;;;;9.40;2.38;;;;;;;;;;5012674;28;20096;-50
2021/06/13 14:42:09;;;;;;;8.82;2.78;;;;;;;;;;5014596;28;20425;-49
2021/06/13 14:44:35;;;;;;;4.82;2.40;;;;;;;;;;5012812;28;20502;-50
2021/06/13 14:47:01;;;;;;;8.32;2.50;;;;;;;;;;5011551;28;20026;-49
2021/06/13 14:49:27;;;;;;;6.25;2.58;;;;;;;;;;5015800;28;20025;-52
2021/06/13 14:51:54;;;;;;;5.45;2.45;;;;;;;;;;5013648;28;20025;-51